Wednesday, February 22, 2017, 12:29 PM EST

KLKU, Louisa, Louisa County Airport/freeman Field

Location: Louisa, VA, United States Lat: 38.01
Local Time: 12:29 PM EST (17:29 GMT) Lon: -77.97
Time Zone: US/Eastern Elev: 492 ft

Show me the last for .
Show Decoded

2017-02-22 12:15 METAR KLKU 221715Z AUTO 22007KT OVC085 16/11 A2996 RMK AO2 =
2017-02-22 11:55 METAR KLKU 221655Z AUTO 23006KT 10SM OVC075 15/10 A2997 RMK AO2 =
2017-02-22 11:35 METAR KLKU 221635Z AUTO 22007KT 10SM BKN075 16/11 A2998 RMK AO2 =
2017-02-22 11:15 METAR KLKU 221615Z AUTO 21004KT SCT075 BKN085 14/11 A2999 RMK AO2 =
2017-02-22 10:55 METAR KLKU 221555Z AUTO 21003KT 10SM -DZ OVC085 13/11 A2999 RMK AO2 =
2017-02-22 10:35 METAR KLKU 221535Z AUTO 20004KT 10SM OVC085 13/11 A3000 RMK AO2 =
2017-02-22 10:15 METAR KLKU 221515Z AUTO 21005KT 10SM -DZ SCT085 OVC090 13/11 A3001 RMK AO2 =
2017-02-22 09:55 METAR KLKU 221455Z AUTO OVC085 12/09 A3001 RMK AO2 =
2017-02-22 09:35 METAR KLKU 221435Z AUTO 20004KT 10SM -DZ OVC085 11/09 A3002 RMK AO2 =
2017-02-22 09:15 METAR KLKU 221415Z AUTO 20004KT A3003 RMK AO2 PWINO =
2017-02-22 08:55 METAR KLKU 221355Z AUTO 00000KT 10SM DZ SCT024 SCT033 OVC075 10/09 A3004 RMK AO2
                 P0001 =
2017-02-22 08:35 METAR KLKU 221335Z AUTO 22003KT 10SM DZ SCT022 SCT035 OVC075 10/08 A3004 RMK AO2
                 P0001 =
2017-02-22 08:15 METAR KLKU 221315Z AUTO 24003KT 10SM -RA OVC075 10/08 A3004 RMK AO2 =
2017-02-22 07:55 METAR KLKU 221255Z AUTO 00000KT 10SM RA OVC075 10/08 A3004 RMK AO2 =
2017-02-22 07:35 METAR KLKU 221235Z AUTO 25003KT 10SM -DZ BKN085 OVC090 10/08 A3004 RMK AO2 =
2017-02-22 07:15 METAR KLKU 221215Z AUTO 24003KT 10SM OVC085 10/07 A3003 RMK AO2 =
2017-02-22 06:55 METAR KLKU 221155Z AUTO 20005KT OVC085 10/07 A3002 RMK AO2 =
2017-02-22 06:35 METAR KLKU 221135Z AUTO 00000KT 10SM OVC085 10/07 A3002 RMK AO2 =
2017-02-22 06:15 METAR KLKU 221115Z AUTO 18003KT SCT085 120 09/07 A3002 RMK AO2 =
2017-02-22 05:55 METAR KLKU 221055Z AUTO 00000KT 10SM CLR 09/07 A3002 RMK AO2 =
2017-02-22 05:35 METAR KLKU 221035Z AUTO 00000KT 10SM CLR 09/07 A3002 RMK AO2 =
2017-02-22 05:15 METAR KLKU 221015Z AUTO 00000KT 10SM CLR 09/07 A3002 RMK AO2 =
2017-02-22 04:55 METAR KLKU 220955Z AUTO 18004KT 10SM CLR 09/07 A3001 RMK AO2 =
2017-02-22 04:35 METAR KLKU 220935Z AUTO 17003KT 10SM CLR 09/07 A3001 RMK AO2 =
2017-02-22 04:15 METAR KLKU 220915Z AUTO 19003KT CLR 09/07 A3002 RMK AO2 =
2017-02-22 03:55 METAR KLKU 220855Z AUTO 18003KT CLR 09/06 A3001 RMK AO2 =
2017-02-22 03:35 METAR KLKU 220835Z AUTO 18003KT 10SM CLR 09/06 A3002 RMK AO2 =
2017-02-22 03:15 METAR KLKU 220815Z AUTO 00000KT 10SM CLR 09/06 A3003 RMK AO2 =
2017-02-22 02:55 METAR KLKU 220755Z AUTO 00000KT 10SM CLR 09/06 A3003 RMK AO2 =
2017-02-22 02:35 METAR KLKU 220735Z AUTO 00000KT 10SM CLR 10/06 A3004 RMK AO2 =
2017-02-22 02:15 METAR KLKU 220715Z AUTO 19003KT 10SM CLR 09/06 A3005 RMK AO2 =
2017-02-22 01:55 METAR KLKU 220655Z AUTO 00000KT 10SM CLR 09/06 A3005 RMK AO2 =
2017-02-22 01:35 METAR KLKU 220635Z AUTO 00000KT 10SM CLR 09/06 A3006 RMK AO2 =
2017-02-22 01:15 METAR KLKU 220615Z AUTO 00000KT 10SM CLR 09/06 A3007 RMK AO2 =
2017-02-22 00:55 METAR KLKU 220555Z AUTO 00000KT 10SM CLR 10/06 A3007 RMK AO2 =
2017-02-22 00:35 METAR KLKU 220535Z AUTO 00000KT 10SM CLR 09/06 A3008 RMK AO2 =
2017-02-22 00:15 METAR KLKU 220515Z AUTO 00000KT 10SM CLR 10/05 A3009 RMK AO2 =
2017-02-21 23:55 METAR KLKU 220455Z AUTO 00000KT 10SM CLR 10/05 A3009 RMK AO2 =
2017-02-21 23:35 METAR KLKU 220435Z AUTO 00000KT 10SM CLR 10/05 A3010 RMK AO2 =
2017-02-21 23:15 METAR KLKU 220415Z AUTO 00000KT 10SM CLR 11/05 A3010 RMK AO2 =
2017-02-21 22:55 METAR KLKU 220355Z AUTO 00000KT 10SM CLR 11/05 A3010 RMK AO2 =
2017-02-21 22:35 METAR KLKU 220335Z AUTO 15004KT 10SM CLR 11/05 A3010 RMK AO2 =
2017-02-21 22:15 METAR KLKU 220315Z AUTO 16004KT 10SM CLR 11/05 A3011 RMK AO2 =
2017-02-21 21:55 METAR KLKU 220255Z AUTO 14003KT 10SM CLR 11/05 A3011 RMK AO2 =
2017-02-21 21:35 METAR KLKU 220235Z AUTO 00000KT 10SM CLR 10/05 A3012 RMK AO2 =
2017-02-21 21:15 METAR KLKU 220215Z AUTO 00000KT 10SM CLR 11/05 A3012 RMK AO2 =
2017-02-21 20:55 METAR KLKU 220155Z AUTO 15003KT 10SM CLR 11/05 A3013 RMK AO2 =
2017-02-21 20:35 METAR KLKU 220135Z AUTO 00000KT 10SM CLR 13/05 A3013 RMK AO2 =
2017-02-21 20:15 METAR KLKU 220115Z AUTO 15003KT 10SM CLR 13/05 A3013 RMK AO2 =
2017-02-21 19:55 METAR KLKU 220055Z AUTO 14003KT 10SM CLR 13/05 A3013 RMK AO2 =
2017-02-21 19:35 METAR KLKU 220035Z AUTO 14004KT 10SM CLR 13/05 A3013 RMK AO2 =
2017-02-21 19:15 METAR KLKU 220015Z AUTO 15003KT 10SM CLR 13/05 A3014 RMK AO2 =
2017-02-21 18:55 METAR KLKU 212355Z AUTO 14004KT 10SM CLR 11/06 A3014 RMK AO2 =
2017-02-21 18:35 METAR KLKU 212335Z AUTO 00000KT 10SM CLR 11/06 A3014 RMK AO2 =
2017-02-21 18:15 METAR KLKU 212315Z AUTO 00000KT 10SM CLR 13/06 A3014 RMK AO2 =
2017-02-21 17:55 METAR KLKU 212255Z AUTO 14003KT 10SM CLR 14/06 A3013 RMK AO2 =
2017-02-21 17:35 METAR KLKU 212235Z AUTO 16003KT 10SM CLR 16/05 A3014 RMK AO2 =
2017-02-21 17:15 METAR KLKU 212215Z AUTO 14004KT 10SM CLR 16/05 A3014 RMK AO2 =
2017-02-21 16:55 METAR KLKU 212155Z AUTO 18003KT 10SM CLR 16/04 A3014 RMK AO2 =
2017-02-21 16:30 METAR KLKU 212130Z AUTO 14006KT 10SM CLR 17/05 A3015 RMK AO2 =
2017-02-21 16:15 METAR KLKU 212115Z AUTO 16005KT 10SM CLR 17/04 A3015 RMK AO2 =
2017-02-21 15:55 METAR KLKU 212055Z AUTO 16003KT 10SM CLR 17/04 A3015 RMK AO2 =
2017-02-21 15:35 METAR KLKU 212035Z AUTO 16004KT 10SM CLR 17/04 A3015 RMK AO2 =
2017-02-21 15:15 METAR KLKU 212015Z AUTO 14003KT 10SM CLR 16/04 A3015 RMK AO2 =
2017-02-21 14:55 METAR KLKU 211955Z AUTO 00000KT 10SM CLR 16/04 A3016 RMK AO2 =
2017-02-21 14:35 METAR KLKU 211935Z AUTO 17003KT CLR 16/04 A3017 RMK AO2 =
2017-02-21 14:15 METAR KLKU 211915Z AUTO 19006KT CLR 17/03 A3018 RMK AO2 =
2017-02-21 13:55 METAR KLKU 211855Z AUTO 18006KT 10SM CLR 16/03 A3018 RMK AO2 =
2017-02-21 13:35 METAR KLKU 211835Z AUTO 19006KT CLR 16/02 A3020 RMK AO2 =
2017-02-21 13:15 METAR KLKU 211815Z AUTO 00000KT CLR 16/02 A3021 RMK AO2 =
2017-02-21 12:55 METAR KLKU 211755Z AUTO 21004KT CLR 16/01 A3022 RMK AO2 =
2017-02-21 12:35 METAR KLKU 211735Z AUTO 19004KT CLR 15/02 A3023 RMK AO2 =

Support USWX by starting your Amazon purchase here.